Time;durP1;ratioP1;P1;durP2;ratioP2;P2;SDS_P1;SDS_P2;PMS_P1;PMS_P2;Temp;Humidity;BMP_temperature;BMP_pressure;BME280_temperature;BME280_humidity;BME280_pressure;Samples;Min_cycle;Max_cycle;Signal;HPM_P1;HPM_P2
2021/05/23 00:00:00;;;;;;;1.05;0.55;;;12.00;62.70;;;;;;4989417;28;20037;-76
2021/05/23 00:02:26;;;;;;;2.15;0.60;;;12.00;62.80;;;;;;4998759;28;20026;-76
2021/05/23 00:04:52;;;;;;;0.88;0.60;;;12.00;63.00;;;;;;5004106;28;20076;-76
2021/05/23 00:07:21;;;;;;;1.23;0.50;;;12.00;63.00;;;;;;4987062;28;20101;-76
2021/05/23 00:09:47;;;;;;;3.05;0.57;;;12.00;63.30;;;;;;5006181;28;20087;-76
2021/05/23 00:12:15;;;;;;;1.45;0.70;;;12.00;63.40;;;;;;4992662;28;20105;-75
2021/05/23 00:14:41;;;;;;;0.47;0.47;;;12.00;63.40;;;;;;5006618;28;20429;-76
2021/05/23 00:17:07;;;;;;;1.48;0.70;;;12.00;63.50;;;;;;4991696;28;20116;-76
2021/05/23 00:19:33;;;;;;;1.77;0.65;;;11.90;63.60;;;;;;5007326;28;20025;-75
2021/05/23 00:21:59;;;;;;;1.52;0.68;;;11.90;63.70;;;;;;4997464;28;20120;-76
2021/05/23 00:24:25;;;;;;;2.08;0.70;;;11.90;63.90;;;;;;5005850;28;20702;-76
2021/05/23 00:26:52;;;;;;;1.77;0.60;;;11.90;64.10;;;;;;4989676;28;20130;-76
2021/05/23 00:29:18;;;;;;;1.77;0.55;;;11.90;64.40;;;;;;4994301;28;20395;-76
2021/05/23 00:31:44;;;;;;;0.80;0.65;;;11.90;64.60;;;;;;4990190;28;20022;-77
2021/05/23 00:34:10;;;;;;;2.08;0.90;;;11.90;64.80;;;;;;5004896;28;20317;-76
2021/05/23 00:36:35;;;;;;;1.63;0.50;;;11.90;65.00;;;;;;5009185;28;20482;-77
2021/05/23 00:39:02;;;;;;;2.42;0.70;;;11.90;65.20;;;;;;4992094;28;20064;-77
2021/05/23 00:41:27;;;;;;;2.50;0.50;;;11.90;65.30;;;;;;4982632;28;20038;-77
2021/05/23 00:43:53;;;;;;;0.43;0.43;;;11.90;65.30;;;;;;4991777;28;20034;-77
2021/05/23 00:46:19;;;;;;;1.63;0.50;;;11.90;65.30;;;;;;4993363;28;20062;-77
2021/05/23 00:48:44;;;;;;;2.38;0.70;;;11.80;65.40;;;;;;4993948;28;20021;-76
2021/05/23 00:51:10;;;;;;;0.70;0.52;;;11.80;65.60;;;;;;4991933;28;20025;-76
2021/05/23 00:53:36;;;;;;;0.90;0.50;;;11.80;65.70;;;;;;4991671;28;20022;-77
2021/05/23 00:56:01;;;;;;;0.75;0.60;;;11.80;65.90;;;;;;4988509;28;20029;-77
2021/05/23 00:58:27;;;;;;;1.85;0.60;;;11.70;65.80;;;;;;4991252;28;20030;-77
2021/05/23 01:00:56;;;;;;;2.90;0.63;;;11.70;65.90;;;;;;4992211;28;20029;-76
2021/05/23 01:03:30;;;;;;;2.50;0.70;;;11.70;66.20;;;;;;4981265;28;20108;-77
2021/05/23 01:06:00;;;;;;;2.38;0.80;;;11.60;66.30;;;;;;4989855;28;20115;-77
2021/05/23 01:08:27;;;;;;;1.13;0.60;;;11.60;66.50;;;;;;4991382;28;20157;-77
2021/05/23 01:10:54;;;;;;;0.98;0.50;;;11.50;66.60;;;;;;4987426;28;20023;-77
2021/05/23 01:13:35;;;;;;;2.45;0.70;;;11.50;66.80;;;;;;4994457;28;20021;-76
2021/05/23 01:16:04;;;;;;;2.40;0.80;;;11.40;67.10;;;;;;4989763;28;20026;-77
2021/05/23 01:19:01;;;;;;;3.17;0.80;;;11.30;67.20;;;;;;5012726;28;20103;-78
2021/05/23 01:21:32;;;;;;;1.75;0.90;;;11.20;67.70;;;;;;4962776;28;20132;-77
2021/05/23 01:24:03;;;;;;;1.10;0.70;;;11.10;68.00;;;;;;4992961;28;20486;-77
2021/05/23 01:26:36;;;;;;;1.57;0.70;;;11.00;68.40;;;;;;5005617;28;20027;-76
2021/05/23 01:29:09;;;;;;;;;;;10.90;68.70;;;;;;4995178;28;20030;-77
2021/05/23 01:31:35;;;;;;;2.03;0.68;;;10.90;68.20;;;;;;4995469;28;19960;-77
2021/05/23 01:34:02;;;;;;;1.38;0.63;;;10.80;68.60;;;;;;5014317;28;20030;-77
2021/05/23 01:36:32;;;;;;;2.95;1.00;;;10.80;69.20;;;;;;5008058;28;20394;-77
2021/05/23 01:38:59;;;;;;;3.58;0.85;;;10.70;69.50;;;;;;5012212;28;20129;-77
2021/05/23 01:41:26;;;;;;;2.10;0.60;;;10.70;69.70;;;;;;5002206;28;20038;-78
2021/05/23 01:43:52;;;;;;;3.17;0.70;;;10.70;70.10;;;;;;4991361;28;20033;-76
2021/05/23 01:46:18;;;;;;;0.98;0.68;;;10.70;70.40;;;;;;4999319;28;20063;-76
2021/05/23 01:48:44;;;;;;;1.27;0.70;;;10.60;70.50;;;;;;4994464;28;20030;-78
2021/05/23 01:51:10;;;;;;;2.05;0.80;;;10.50;70.70;;;;;;5009640;28;20410;-77
2021/05/23 01:53:37;;;;;;;1.17;0.68;;;10.50;71.00;;;;;;4991592;28;20026;-78
2021/05/23 01:56:05;;;;;;;0.60;0.55;;;10.50;71.40;;;;;;4995362;28;20378;-78
2021/05/23 01:58:31;;;;;;;2.10;0.77;;;10.50;71.60;;;;;;4995384;28;20034;-78
2021/05/23 02:00:57;;;;;;;1.80;0.63;;;10.40;71.80;;;;;;4994951;28;20025;-77
2021/05/23 02:03:24;;;;;;;2.03;0.80;;;10.40;72.00;;;;;;5011308;28;20419;-77
2021/05/23 02:05:55;;;;;;;1.60;0.80;;;10.50;72.30;;;;;;4999504;28;20061;-78
2021/05/23 02:08:23;;;;;;;2.22;0.60;;;10.40;73.30;;;;;;4988622;28;21088;-76
2021/05/23 02:10:50;;;;;;;1.27;0.80;;;10.40;72.80;;;;;;4995767;28;20433;-78
2021/05/23 02:13:16;;;;;;;0.75;0.63;;;10.50;73.10;;;;;;4993258;28;20022;-78
2021/05/23 02:15:42;;;;;;;1.70;0.70;;;10.50;73.20;;;;;;4995076;28;20030;-78
2021/05/23 02:18:08;;;;;;;1.95;0.70;;;10.50;73.20;;;;;;4995661;28;20512;-78
2021/05/23 02:20:35;;;;;;;3.25;0.90;;;10.40;73.50;;;;;;4977316;28;20063;-78
2021/05/23 02:23:04;;;;;;;1.80;0.90;;;10.40;73.70;;;;;;4982238;28;20026;-78
2021/05/23 02:25:32;;;;;;;1.83;0.52;;;10.50;74.00;;;;;;4993741;28;20067;-77
2021/05/23 02:28:01;;;;;;;2.30;0.90;;;10.50;73.90;;;;;;5006170;28;20052;-78
2021/05/23 02:30:39;;;;;;;1.95;0.65;;;10.50;74.00;;;;;;5009000;28;20026;-76
2021/05/23 02:33:07;;;;;;;1.65;0.80;;;10.40;74.30;;;;;;4994720;28;20071;-78
2021/05/23 02:35:34;;;;;;;0.90;0.82;;;10.40;74.10;;;;;;4994819;28;20472;-77
2021/05/23 02:38:01;;;;;;;1.05;0.88;;;10.40;74.40;;;;;;5009814;28;20022;-78
2021/05/23 02:40:29;;;;;;;1.08;0.90;;;10.40;74.30;;;;;;5010660;28;20032;-77
2021/05/23 02:42:55;;;;;;;2.45;1.25;;;10.30;74.40;;;;;;4993972;28;20029;-77
2021/05/23 02:45:21;;;;;;;2.17;0.90;;;10.30;74.50;;;;;;4990982;28;20026;-77
2021/05/23 02:47:48;;;;;;;2.90;1.00;;;10.20;74.60;;;;;;4993073;28;20598;-77
2021/05/23 02:50:24;;;;;;;2.47;0.80;;;10.20;74.80;;;;;;5011835;28;21432;-78
2021/05/23 02:52:50;;;;;;;3.83;0.80;;;10.20;75.10;;;;;;4989481;28;20030;-77
2021/05/23 02:55:16;;;;;;;1.42;0.70;;;10.10;74.90;;;;;;4990558;28;20715;-78
2021/05/23 02:57:43;;;;;;;1.08;0.75;;;10.10;75.20;;;;;;4994874;28;20030;-77
2021/05/23 03:00:12;;;;;;;2.47;1.00;;;10.10;75.30;;;;;;4993748;28;20034;-77
2021/05/23 03:02:38;;;;;;;2.45;1.10;;;10.10;75.60;;;;;;4976117;28;20034;-77
2021/05/23 03:05:06;;;;;;;0.80;0.55;;;10.10;75.70;;;;;;4982173;28;20084;-77
2021/05/23 03:07:40;;;;;;;1.58;0.77;;;10.00;75.80;;;;;;4995187;28;20031;-77
2021/05/23 03:10:08;;;;;;;1.38;0.90;;;10.10;76.10;;;;;;5001762;28;20015;-77
2021/05/23 03:12:34;;;;;;;1.08;0.63;;;10.00;75.90;;;;;;4993542;28;20113;-77
2021/05/23 03:14:59;;;;;;;0.90;0.70;;;10.00;76.00;;;;;;4992885;28;20036;-77
2021/05/23 03:17:25;;;;;;;1.95;0.70;;;10.00;76.10;;;;;;5004983;28;20076;-77
2021/05/23 03:19:50;;;;;;;5.07;0.90;;;10.00;76.20;;;;;;5007784;28;20088;-77
2021/05/23 03:22:16;;;;;;;1.23;0.60;;;10.00;76.20;;;;;;4991091;28;20021;-77
2021/05/23 03:24:42;;;;;;;0.57;0.50;;;10.00;76.30;;;;;;5007282;28;20740;-77
2021/05/23 03:27:07;;;;;;;3.90;0.90;;;10.00;76.30;;;;;;4993395;28;20022;-77
2021/05/23 03:29:33;;;;;;;1.50;0.65;;;9.90;76.30;;;;;;4993876;28;20029;-77
2021/05/23 03:31:58;;;;;;;0.90;0.55;;;9.90;76.30;;;;;;4998398;28;20017;-77
2021/05/23 03:34:24;;;;;;;0.50;0.45;;;9.80;76.30;;;;;;4998654;28;20652;-77
2021/05/23 03:36:51;;;;;;;0.63;0.63;;;9.80;76.40;;;;;;4993230;28;20081;-77
2021/05/23 03:39:17;;;;;;;0.82;0.50;;;9.80;76.50;;;;;;4991178;28;20076;-77
2021/05/23 03:41:42;;;;;;;1.95;0.60;;;9.80;76.50;;;;;;4991507;28;20753;-77
2021/05/23 03:44:08;;;;;;;1.17;0.50;;;9.70;76.60;;;;;;4993440;28;20034;-78
2021/05/23 03:46:33;;;;;;;1.52;0.50;;;9.70;76.70;;;;;;4998333;28;20099;-77
2021/05/23 03:48:59;;;;;;;0.52;0.40;;;9.70;76.60;;;;;;4993527;28;20025;-77
2021/05/23 03:51:26;;;;;;;1.55;0.50;;;9.60;76.70;;;;;;4993203;28;20022;-78
2021/05/23 03:53:52;;;;;;;2.53;0.65;;;9.60;76.90;;;;;;4993215;28;20017;-77
2021/05/23 03:56:17;;;;;;;2.28;0.75;;;9.60;76.90;;;;;;4991740;28;20033;-78
2021/05/23 03:58:43;;;;;;;0.40;0.40;;;9.60;76.90;;;;;;4991746;28;20036;-78
2021/05/23 04:01:08;;;;;;;1.38;0.63;;;9.50;77.00;;;;;;4983280;28;20029;-76
2021/05/23 04:03:34;;;;;;;1.08;0.50;;;9.50;77.10;;;;;;5023346;23;20046;-71
2021/05/23 04:05:59;;;;;;;1.92;0.60;;;9.50;77.20;;;;;;4997813;28;20498;-71
2021/05/23 04:08:25;;;;;;;2.10;0.70;;;9.50;77.30;;;;;;4994341;28;20042;-71
2021/05/23 04:11:03;;;;;;;1.92;0.52;;;9.50;77.40;;;;;;5001136;28;20026;-68
2021/05/23 04:13:31;;;;;;;0.70;0.50;;;9.50;78.00;;;;;;4996735;28;20022;-71
2021/05/23 04:15:57;;;;;;;1.50;0.60;;;9.60;77.60;;;;;;5004607;28;20363;-71
2021/05/23 04:18:22;;;;;;;2.55;0.60;;;9.60;77.70;;;;;;5004702;28;20033;-71
2021/05/23 04:20:48;;;;;;;2.10;0.57;;;9.60;77.60;;;;;;5007434;28;20033;-70
2021/05/23 04:23:14;;;;;;;1.05;0.50;;;9.50;77.50;;;;;;5010854;28;20520;-71
2021/05/23 04:25:40;;;;;;;0.93;0.47;;;9.50;77.70;;;;;;5015598;28;20034;-71
2021/05/23 04:28:06;;;;;;;2.72;0.85;;;9.50;77.70;;;;;;5016537;28;20041;-71
2021/05/23 04:30:32;;;;;;;0.85;0.65;;;9.50;77.80;;;;;;5009608;28;20036;-71
2021/05/23 04:32:57;;;;;;;0.80;0.50;;;9.50;77.90;;;;;;5005055;28;20477;-71
2021/05/23 04:35:25;;;;;;;1.00;0.65;;;9.50;78.10;;;;;;5008507;28;20118;-71
2021/05/23 04:37:51;;;;;;;0.68;0.50;;;9.50;78.20;;;;;;5004345;28;20054;-71
2021/05/23 04:40:17;;;;;;;1.88;0.60;;;9.50;78.10;;;;;;5008187;28;20034;-71
2021/05/23 04:42:43;;;;;;;2.42;0.85;;;9.50;78.10;;;;;;5009092;28;20040;-71
2021/05/23 04:45:10;;;;;;;1.17;0.50;;;9.50;78.10;;;;;;4999226;28;20030;-70
2021/05/23 04:47:35;;;;;;;1.58;0.60;;;9.50;78.20;;;;;;5008660;28;20049;-71
2021/05/23 04:50:06;;;;;;;0.82;0.50;;;9.50;78.20;;;;;;4981410;28;20022;-68
2021/05/23 04:52:32;;;;;;;0.73;0.52;;;9.60;78.50;;;;;;4999847;28;20105;-70
2021/05/23 04:54:58;;;;;;;1.88;0.50;;;9.60;78.40;;;;;;5009925;28;20658;-69
2021/05/23 04:57:24;;;;;;;3.60;0.80;;;9.60;78.50;;;;;;5006854;28;20512;-71
2021/05/23 04:59:53;;;;;;;1.15;0.50;;;9.60;78.50;;;;;;5011444;28;20160;-71
2021/05/23 05:02:19;;;;;;;0.60;0.43;;;9.60;78.60;;;;;;5010975;28;20498;-71
2021/05/23 05:04:46;;;;;;;3.85;0.80;;;9.60;78.70;;;;;;5008816;28;20052;-71
2021/05/23 05:07:11;;;;;;;1.65;0.70;;;9.70;78.60;;;;;;5006642;28;20026;-69
2021/05/23 05:09:37;;;;;;;1.42;0.82;;;9.70;78.50;;;;;;5007861;28;20724;-71
2021/05/23 05:12:03;;;;;;;2.58;0.90;;;9.70;78.70;;;;;;5000331;28;20062;-71
2021/05/23 05:14:29;;;;;;;0.50;0.50;;;9.70;78.70;;;;;;5002301;28;20060;-71
2021/05/23 05:16:54;;;;;;;0.43;0.43;;;9.80;78.80;;;;;;5008383;28;20080;-70
2021/05/23 05:19:20;;;;;;;2.65;0.60;;;9.80;78.70;;;;;;5001943;28;20030;-68
2021/05/23 05:21:46;;;;;;;1.48;0.60;;;9.90;78.80;;;;;;4997964;28;20068;-72
2021/05/23 05:24:12;;;;;;;1.42;0.50;;;9.90;78.60;;;;;;4997542;28;20136;-69
2021/05/23 05:26:38;;;;;;;1.10;0.60;;;10.00;78.80;;;;;;5005886;28;20032;-72
2021/05/23 05:29:04;;;;;;;2.92;0.90;;;10.10;78.70;;;;;;5005159;28;20108;-72
2021/05/23 05:31:30;;;;;;;1.65;0.55;;;10.10;78.70;;;;;;5006185;28;20026;-71
2021/05/23 05:33:56;;;;;;;0.70;0.70;;;10.20;78.70;;;;;;5006076;28;20111;-70
2021/05/23 05:36:22;;;;;;;1.42;0.57;;;10.20;78.60;;;;;;5007061;28;20041;-71
2021/05/23 05:38:49;;;;;;;0.40;0.40;;;10.30;78.60;;;;;;4987915;28;20057;-70
2021/05/23 05:41:19;;;;;;;1.48;0.50;;;10.30;78.50;;;;;;5006817;28;20583;-70
2021/05/23 05:43:44;;;;;;;2.03;0.70;;;10.30;78.40;;;;;;5007837;28;20217;-70
2021/05/23 05:46:10;;;;;;;3.13;1.50;;;10.30;78.30;;;;;;4997181;28;20064;-71
2021/05/23 05:48:36;;;;;;;0.82;0.50;;;10.30;78.50;;;;;;4992273;28;20501;-69
2021/05/23 05:51:01;;;;;;;0.95;0.50;;;10.30;78.60;;;;;;5005739;28;20033;-73
2021/05/23 05:53:27;;;;;;;1.30;0.63;;;10.40;78.70;;;;;;5011365;28;20101;-69
2021/05/23 05:55:53;;;;;;;0.85;0.57;;;10.40;78.50;;;;;;5015255;28;20022;-69
2021/05/23 05:58:18;;;;;;;3.15;0.60;;;10.30;78.50;;;;;;5007158;28;20170;-70
2021/05/23 06:00:44;;;;;;;0.75;0.45;;;10.40;78.70;;;;;;5007154;28;20021;-74
2021/05/23 06:03:09;;;;;;;1.15;0.50;;;10.40;78.60;;;;;;5011599;28;20108;-74
2021/05/23 06:05:35;;;;;;;2.13;0.65;;;10.40;78.50;;;;;;5017275;28;20535;-69
2021/05/23 06:08:01;;;;;;;3.63;0.98;;;10.30;78.50;;;;;;5007439;28;20393;-69
2021/05/23 06:10:26;;;;;;;2.78;0.70;;;10.40;78.50;;;;;;5021736;28;20079;-69
2021/05/23 06:12:52;;;;;;;0.50;0.50;;;10.40;78.60;;;;;;5005382;28;20037;-71
2021/05/23 06:15:18;;;;;;;1.42;0.65;;;10.40;78.40;;;;;;5015237;28;20018;-69
2021/05/23 06:17:44;;;;;;;0.40;0.40;;;10.40;78.30;;;;;;5022960;28;20033;-72
2021/05/23 06:20:10;;;;;;;0.90;0.68;;;10.50;78.30;;;;;;5001913;28;20026;-69
2021/05/23 06:22:36;;;;;;;2.90;0.60;;;10.50;78.20;;;;;;5015800;28;20124;-69
2021/05/23 06:25:02;;;;;;;0.80;0.60;;;10.40;78.20;;;;;;5011990;28;20037;-69
2021/05/23 06:27:28;;;;;;;2.35;0.60;;;10.40;78.20;;;;;;5022521;28;20034;-69
2021/05/23 06:29:53;;;;;;;1.42;0.47;;;10.40;78.20;;;;;;5006279;28;20033;-70
2021/05/23 06:32:19;;;;;;;0.68;0.40;;;10.40;78.30;;;;;;5012501;28;20489;-70
2021/05/23 06:34:44;;;;;;;3.03;1.17;;;10.40;78.10;;;;;;5007162;28;20418;-72
2021/05/23 06:37:10;;;;;;;1.02;0.70;;;10.40;77.90;;;;;;5009100;28;20080;-69
2021/05/23 06:39:37;;;;;;;0.70;0.70;;;10.40;77.90;;;;;;5005877;28;20045;-69
2021/05/23 06:42:03;;;;;;;1.17;0.60;;;10.50;77.80;;;;;;5010977;28;20014;-69
2021/05/23 06:44:29;;;;;;;2.63;0.80;;;10.50;77.50;;;;;;5009329;28;20032;-73
2021/05/23 06:46:54;;;;;;;1.38;0.50;;;10.60;77.60;;;;;;5008077;28;20073;-76
2021/05/23 06:49:20;;;;;;;0.65;0.45;;;10.60;77.50;;;;;;5012655;28;20444;-69
2021/05/23 06:51:46;;;;;;;4.03;0.70;;;10.60;78.00;;;;;;5011334;28;20029;-70
2021/05/23 06:54:11;;;;;;;2.47;0.43;;;10.70;77.30;;;;;;5002993;28;20577;-71
2021/05/23 06:56:37;;;;;;;1.27;0.55;;;10.70;77.70;;;;;;5009824;28;20026;-69
2021/05/23 06:59:03;;;;;;;3.20;0.63;;;10.80;77.10;;;;;;5000068;28;20950;-70
2021/05/23 07:01:30;;;;;;;1.20;0.45;;;11.00;76.80;;;;;;5009138;28;20049;-71
2021/05/23 07:03:55;;;;;;;1.85;0.50;;;11.00;76.80;;;;;;5011070;28;20403;-75
2021/05/23 07:06:21;;;;;;;2.08;0.80;;;11.10;76.50;;;;;;5009520;28;20034;-69
2021/05/23 07:08:46;;;;;;;1.65;0.65;;;11.20;76.50;;;;;;5010820;28;20030;-69
2021/05/23 07:11:12;;;;;;;6.05;0.80;;;11.20;76.50;;;;;;5011599;28;20463;-70
2021/05/23 07:13:38;;;;;;;1.77;0.80;;;11.30;76.50;;;;;;5020173;28;20478;-74
2021/05/23 07:16:04;;;;;;;1.63;0.70;;;11.40;76.10;;;;;;5010540;28;20109;-70
2021/05/23 07:18:30;;;;;;;1.42;0.40;;;11.40;75.70;;;;;;5011200;28;20049;-72
2021/05/23 07:20:59;;;;;;;3.60;1.02;;;11.50;75.40;;;;;;5009043;28;20423;-69
2021/05/23 07:23:25;;;;;;;0.65;0.52;;;11.60;75.40;;;;;;4997476;28;20052;-69
2021/05/23 07:25:51;;;;;;;1.73;0.73;;;11.60;75.50;;;;;;5014178;28;20026;-70
2021/05/23 07:28:16;;;;;;;4.35;0.50;;;11.60;75.20;;;;;;5011686;28;20037;-72
2021/05/23 07:30:42;;;;;;;4.43;0.88;;;11.60;74.60;;;;;;5013102;28;20017;-69
2021/05/23 07:33:07;;;;;;;1.95;0.40;;;11.50;74.50;;;;;;5025038;28;20033;-69
2021/05/23 07:35:33;;;;;;;3.17;0.50;;;12.00;74.20;;;;;;5009948;28;20105;-69
2021/05/23 07:37:58;;;;;;;1.95;0.63;;;12.30;73.50;;;;;;5024186;28;20029;-73
2021/05/23 07:40:24;;;;;;;0.77;0.52;;;12.90;73.00;;;;;;5014648;28;20034;-70
2021/05/23 07:42:50;;;;;;;1.10;0.60;;;12.90;72.50;;;;;;5019107;28;20030;-70
2021/05/23 07:45:16;;;;;;;1.17;0.40;;;12.80;72.70;;;;;;5022940;28;20065;-70
2021/05/23 07:47:41;;;;;;;3.40;1.48;;;12.70;72.30;;;;;;5011095;28;20029;-70
2021/05/23 07:50:12;;;;;;;1.75;1.05;;;12.60;72.50;;;;;;5012896;28;20489;-76
2021/05/23 07:52:38;;;;;;;1.05;0.40;;;12.60;72.90;;;;;;5006708;28;20018;-71
2021/05/23 07:55:04;;;;;;;2.00;0.50;;;12.60;72.60;;;;;;5009846;28;20033;-70
2021/05/23 07:57:30;;;;;;;3.03;0.70;;;12.60;71.90;;;;;;5010282;28;20029;-70
2021/05/23 07:59:56;;;;;;;2.78;0.80;;;12.50;71.80;;;;;;5011191;28;20104;-70
2021/05/23 08:02:21;;;;;;;2.38;0.68;;;12.50;71.70;;;;;;4992576;28;20041;-72
2021/05/23 08:04:47;;;;;;;1.70;0.75;;;12.70;71.30;;;;;;5015870;28;20034;-69
2021/05/23 08:07:12;;;;;;;1.80;0.55;;;12.60;71.20;;;;;;5010183;28;20695;-69
2021/05/23 08:09:38;;;;;;;1.00;0.60;;;12.50;71.30;;;;;;5020121;28;20461;-69
2021/05/23 08:12:04;;;;;;;1.77;0.43;;;12.90;70.60;;;;;;5023904;28;20017;-72
2021/05/23 08:14:29;;;;;;;0.63;0.50;;;12.70;70.60;;;;;;5013156;28;20057;-73
2021/05/23 08:16:55;;;;;;;1.05;0.50;;;12.60;70.60;;;;;;5016886;28;20180;-69
2021/05/23 08:19:21;;;;;;;2.95;0.50;;;12.70;70.70;;;;;;5025420;28;20064;-71
2021/05/23 08:21:47;;;;;;;1.88;0.45;;;12.60;70.90;;;;;;5007719;28;20045;-69
2021/05/23 08:24:13;;;;;;;1.85;0.47;;;12.60;71.10;;;;;;5017849;28;20040;-69
2021/05/23 08:26:39;;;;;;;2.10;1.17;;;12.60;71.20;;;;;;5010072;28;20533;-75
2021/05/23 08:29:05;;;;;;;1.38;0.50;;;12.50;71.10;;;;;;5020879;28;20030;-69
2021/05/23 08:31:32;;;;;;;1.65;0.60;;;12.40;71.20;;;;;;5013814;28;20359;-69
2021/05/23 08:33:57;;;;;;;1.35;0.65;;;12.30;71.40;;;;;;5008955;28;20026;-69
2021/05/23 08:36:23;;;;;;;2.88;0.73;;;12.20;71.80;;;;;;5013723;28;20041;-71
2021/05/23 08:38:49;;;;;;;2.38;0.60;;;12.10;72.10;;;;;;5002518;28;20034;-69
2021/05/23 08:41:16;;;;;;;4.53;0.63;;;12.00;72.20;;;;;;5021881;28;20036;-70
2021/05/23 08:43:42;;;;;;;1.80;0.68;;;11.90;72.20;;;;;;5008721;28;20478;-69
2021/05/23 08:46:08;;;;;;;1.98;0.43;;;11.70;72.10;;;;;;5008959;28;20311;-69
2021/05/23 08:48:34;;;;;;;5.25;0.60;;;11.50;72.10;;;;;;5008243;28;20032;-69
2021/05/23 08:51:00;;;;;;;1.88;0.50;;;11.40;72.90;;;;;;5017036;28;20049;-68
2021/05/23 08:53:26;;;;;;;0.95;0.60;;;11.40;73.10;;;;;;5014128;28;20608;-69
2021/05/23 08:55:52;;;;;;;2.53;0.65;;;11.50;73.20;;;;;;5017539;28;20037;-69
2021/05/23 08:58:18;;;;;;;4.35;2.42;;;11.40;73.50;;;;;;5019666;28;20026;-69
2021/05/23 09:00:44;;;;;;;2.25;0.82;;;11.40;73.90;;;;;;5006935;28;20017;-68
2021/05/23 09:03:18;;;;;;;1.27;0.52;;;12.20;73.40;;;;;;5007683;28;21318;-68
2021/05/23 09:05:57;;;;;;;2.08;0.60;;;12.20;73.60;;;;;;5007714;28;20105;-68
2021/05/23 09:08:26;;;;;;;1.83;0.70;;;12.30;73.90;;;;;;5011508;28;20109;-71
2021/05/23 09:11:01;;;;;;;3.13;1.13;;;12.30;73.40;;;;;;5012126;28;20026;-68
2021/05/23 09:13:35;;;;;;;1.88;0.70;;;12.40;73.10;;;;;;5010804;28;20021;-69
2021/05/23 09:16:04;;;;;;;1.38;0.52;;;12.90;72.70;;;;;;5014515;28;20034;-69
2021/05/23 09:18:39;;;;;;;2.28;0.75;;;13.40;71.60;;;;;;5029472;28;20092;-73
2021/05/23 09:21:04;;;;;;;0.55;0.30;;;14.80;70.00;;;;;;5019800;28;20042;-71
2021/05/23 09:23:44;;;;;;;1.25;0.60;;;14.80;70.00;;;;;;5009366;28;20096;-71
2021/05/23 09:26:22;;;;;;;0.98;0.40;;;14.40;71.20;;;;;;5007003;28;20034;-69
2021/05/23 09:28:49;;;;;;;2.55;0.73;;;14.30;70.40;;;;;;5008578;28;20022;-70
2021/05/23 09:31:21;;;;;;;2.72;0.70;;;13.90;70.80;;;;;;4992234;28;20022;-71
2021/05/23 09:33:50;;;;;;;1.05;0.73;;;13.60;71.00;;;;;;5008494;28;20104;-71
2021/05/23 09:36:17;;;;;;;0.50;0.50;;;13.30;70.20;;;;;;5010818;28;20034;-73
2021/05/23 09:39:03;;;;;;;0.95;0.50;;;13.00;70.60;;;;;;5008349;28;20033;-70
2021/05/23 09:41:38;;;;;;;1.98;0.60;;;12.80;70.60;;;;;;4998633;28;20061;-69
2021/05/23 09:44:10;;;;;;;0.82;0.52;;;13.90;69.50;;;;;;5002363;28;20030;-71
2021/05/23 09:46:36;;;;;;;0.88;0.50;;;16.20;66.20;;;;;;5012364;28;20117;-72
2021/05/23 09:49:02;;;;;;;1.58;0.38;;;17.80;64.50;;;;;;5012765;28;20036;-74
2021/05/23 09:51:27;;;;;;;1.50;0.47;;;18.30;64.00;;;;;;5014968;28;20436;-71
2021/05/23 09:53:58;;;;;;;1.92;0.40;;;17.80;63.90;;;;;;5009980;28;20022;-70
2021/05/23 09:56:30;;;;;;;1.92;0.50;;;17.90;63.60;;;;;;5007913;28;20058;-68
2021/05/23 09:58:55;;;;;;;2.28;0.35;;;18.50;63.50;;;;;;5019025;28;20291;-68
2021/05/23 10:01:26;;;;;;;1.23;0.40;;;19.50;62.80;;;;;;5015433;28;20034;-69
2021/05/23 10:03:53;;;;;;;1.67;0.47;;;20.10;61.40;;;;;;5011069;23;20042;-70
2021/05/23 10:06:31;;;;;;;1.50;0.70;;;20.60;61.20;;;;;;5001066;28;20030;-70
2021/05/23 10:08:57;;;;;;;2.65;1.00;;;20.80;59.80;;;;;;5000132;28;20437;-72
2021/05/23 10:11:25;;;;;;;1.67;0.80;;;20.90;60.50;;;;;;4983299;28;20027;-71
2021/05/23 10:13:51;;;;;;;1.40;0.65;;;20.50;58.80;;;;;;4980049;28;20433;-70
2021/05/23 10:16:17;;;;;;;1.20;0.52;;;19.60;57.60;;;;;;4982051;28;20154;-71
2021/05/23 10:18:49;;;;;;;2.08;0.68;;;18.60;58.00;;;;;;4991903;28;20509;-72
2021/05/23 10:21:15;;;;;;;1.40;0.65;;;17.70;59.10;;;;;;4988113;28;20081;-71
2021/05/23 10:23:56;;;;;;;1.98;0.90;;;17.00;60.00;;;;;;4988758;28;20179;-74
2021/05/23 10:26:25;;;;;;;1.67;0.80;;;16.40;59.60;;;;;;4992260;28;20092;-72
2021/05/23 10:28:52;;;;;;;2.78;1.00;;;15.80;59.80;;;;;;4991872;28;20015;-71
2021/05/23 10:31:29;;;;;;;0.80;0.68;;;15.20;60.20;;;;;;4992100;28;20022;-73
2021/05/23 10:33:55;;;;;;;0.90;0.50;;;14.70;60.70;;;;;;4989358;28;20022;-71
2021/05/23 10:36:47;;;;;;;1.38;0.82;;;14.50;60.90;;;;;;4990950;28;20038;-72
2021/05/23 10:39:15;;;;;;;2.03;0.90;;;14.50;61.20;;;;;;4985877;28;20053;-74
2021/05/23 10:41:42;;;;;;;0.52;0.50;;;14.60;61.30;;;;;;4991369;28;20102;-74
2021/05/23 10:44:11;;;;;;;2.25;0.40;;;14.70;61.60;;;;;;4989681;28;20172;-73
2021/05/23 10:46:50;;;;;;;0.80;0.30;;;14.70;61.70;;;;;;4990589;28;20034;-73
2021/05/23 10:49:17;;;;;;;2.47;0.30;;;14.90;62.60;;;;;;4989032;28;20061;-74
2021/05/23 10:51:57;;;;;;;1.75;0.60;;;15.00;61.90;;;;;;4970371;28;20605;-72
2021/05/23 10:54:23;;;;;;;0.57;0.30;;;15.20;61.40;;;;;;4977974;28;20027;-72
2021/05/23 10:57:03;;;;;;;1.48;0.40;;;15.30;61.60;;;;;;4992214;28;20023;-72
2021/05/23 10:59:30;;;;;;;1.92;0.52;;;15.30;62.00;;;;;;4990693;28;20058;-72
2021/05/23 11:01:56;;;;;;;2.83;0.40;;;15.60;62.70;;;;;;4990468;28;20061;-72
2021/05/23 11:04:35;;;;;;;2.30;1.05;;;15.90;62.10;;;;;;5004084;28;20435;-73
2021/05/23 11:07:11;;;;;;;0.38;0.20;;;16.00;61.60;;;;;;4985171;28;20537;-72
2021/05/23 11:09:37;;;;;;;1.90;0.52;;;16.30;61.60;;;;;;5011391;28;20144;-72
2021/05/23 11:12:07;;;;;;;0.88;0.40;;;16.40;61.60;;;;;;4994282;28;20025;-72
2021/05/23 11:14:33;;;;;;;1.55;0.68;;;16.50;59.80;;;;;;5009917;28;20113;-72
2021/05/23 11:16:59;;;;;;;2.58;0.32;;;16.30;60.10;;;;;;5011864;28;20127;-72
2021/05/23 11:19:30;;;;;;;1.23;0.52;;;16.30;59.90;;;;;;5011538;28;20249;-73
2021/05/23 11:21:55;;;;;;;1.20;0.40;;;16.30;59.60;;;;;;5011829;28;20404;-73
2021/05/23 11:24:30;;;;;;;0.57;0.40;;;16.30;60.10;;;;;;5010666;28;20033;-74
2021/05/23 11:26:56;;;;;;;1.35;0.40;;;16.40;59.80;;;;;;4993584;28;20525;-72
2021/05/23 11:29:25;;;;;;;0.95;0.47;;;16.50;59.20;;;;;;5012754;28;20034;-73
2021/05/23 11:31:51;;;;;;;1.77;0.40;;;16.40;58.60;;;;;;4995323;28;20033;-74
2021/05/23 11:34:21;;;;;;;0.30;0.30;;;16.30;58.60;;;;;;4992279;28;20030;-73
2021/05/23 11:36:47;;;;;;;0.70;0.30;;;16.30;58.50;;;;;;5010247;28;20109;-74
2021/05/23 11:39:15;;;;;;;1.30;0.35;;;16.20;59.00;;;;;;5011657;28;20034;-74
2021/05/23 11:41:49;;;;;;;0.50;0.45;;;16.10;58.30;;;;;;5010766;28;20037;-74
2021/05/23 11:44:15;;;;;;;0.25;0.25;;;15.90;58.70;;;;;;5010539;28;20025;-73
2021/05/23 11:46:52;;;;;;;3.38;0.40;;;15.70;58.30;;;;;;5010898;28;20127;-74
2021/05/23 11:49:20;;;;;;;1.77;0.40;;;15.60;58.80;;;;;;5004529;28;20042;-72
2021/05/23 11:51:47;;;;;;;1.65;0.50;;;15.40;59.30;;;;;;5011037;28;20053;-73
2021/05/23 11:54:22;;;;;;;1.58;0.40;;;15.30;59.60;;;;;;5010565;28;20022;-73
2021/05/23 11:56:47;;;;;;;2.40;0.68;;;15.20;59.70;;;;;;4997934;28;20089;-72
2021/05/23 11:59:13;;;;;;;2.10;0.50;;;15.20;59.90;;;;;;5009666;28;20497;-72
2021/05/23 12:01:40;;;;;;;1.48;0.50;;;15.30;60.30;;;;;;5011143;28;20129;-73
2021/05/23 12:04:11;;;;;;;0.45;0.40;;;15.50;60.20;;;;;;5005091;28;20034;-72
2021/05/23 12:06:46;;;;;;;3.00;0.52;;;15.80;60.20;;;;;;5010438;28;20030;-73
2021/05/23 12:09:17;;;;;;;0.32;0.25;;;16.00;59.70;;;;;;5011025;28;20025;-72
2021/05/23 12:11:51;;;;;;;2.08;0.40;;;16.30;59.70;;;;;;5011058;28;20599;-72
2021/05/23 12:14:24;;;;;;;1.63;0.50;;;16.50;59.20;;;;;;4992566;28;20041;-72
2021/05/23 12:16:59;;;;;;;0.50;0.20;;;16.60;59.00;;;;;;5010556;28;20034;-73
2021/05/23 12:19:54;;;;;;;2.90;0.30;;;16.70;58.30;;;;;;5010311;28;20033;-72
2021/05/23 12:22:22;;;;;;;1.85;0.40;;;16.70;57.90;;;;;;5010166;28;20417;-72
2021/05/23 12:24:51;;;;;;;0.55;0.25;;;16.60;58.00;;;;;;5009081;28;20437;-73
2021/05/23 12:27:34;;;;;;;0.77;0.35;;;16.50;57.90;;;;;;4992843;28;20437;-72
2021/05/23 12:30:19;;;;;;;1.17;0.50;;;16.40;57.30;;;;;;5009304;28;20030;-73
2021/05/23 12:32:54;;;;;;;2.05;0.40;;;16.20;57.00;;;;;;4974995;28;20038;-72
2021/05/23 12:35:28;;;;;;;1.83;0.30;;;16.00;57.30;;;;;;5000327;28;20091;-72
2021/05/23 12:37:58;;;;;;;1.27;0.90;;;15.90;57.60;;;;;;5010065;28;20427;-73
2021/05/23 12:40:40;;;;;;;0.75;0.35;;;15.80;57.90;;;;;;4992933;28;20030;-72
2021/05/23 12:43:10;;;;;;;2.28;0.40;;;15.70;57.60;;;;;;5011006;28;20652;-72
2021/05/23 12:45:35;;;;;;;2.35;0.50;;;15.60;57.90;;;;;;5009171;28;20109;-72
2021/05/23 12:48:06;;;;;;;1.60;0.60;;;15.50;57.70;;;;;;5010742;28;20783;-72
2021/05/23 12:50:59;;;;;;;1.27;0.25;;;15.40;57.90;;;;;;5001589;28;20045;-74